Time;durP1;ratioP1;P1;durP2;ratioP2;P2;SDS_P1;SDS_P2;PMS_P1;PMS_P2;Temp;Humidity;BMP_temperature;BMP_pressure;BME280_temperature;BME280_humidity;BME280_pressure;Samples;Min_cycle;Max_cycle;Signal;HPM_P1;HPM_P2
2022/11/13 00:01:27;;;;;;;;;;;;;;;11.94;58.59;102609.31;5055486;28;20154;-72
2022/11/13 00:04:11;;;;;;;17.20;11.27;;;;;;;12.02;58.49;102604.44;5054429;28;19928;-72
2022/11/13 00:06:57;;;;;;;14.85;11.00;;;;;;;12.02;58.43;102593.66;5060824;28;20201;-72
2022/11/13 00:09:43;;;;;;;16.38;11.60;;;;;;;12.01;58.50;102591.91;5055910;28;20465;-71
2022/11/13 00:12:29;;;;;;;15.73;11.43;;;;;;;11.99;58.65;102589.28;5074574;28;20056;-72
2022/11/13 00:15:17;;;;;;;16.23;11.52;;;;;;;11.98;58.60;102581.28;5062006;28;20125;-72
2022/11/13 00:18:02;;;;;;;16.83;11.43;;;;;;;11.97;58.49;102590.31;5065628;28;20177;-71
2022/11/13 00:20:47;;;;;;;16.83;11.07;;;;;;;11.97;58.50;102579.53;5074046;28;20075;-72
2022/11/13 00:23:34;;;;;;;19.50;11.17;;;;;;;11.95;58.43;102573.38;5074456;28;20047;-71
2022/11/13 00:26:25;;;;;;;17.42;10.82;;;;;;;11.94;58.44;102579.69;5074263;28;20382;-72
2022/11/13 00:29:10;;;;;;;17.52;11.82;;;;;;;11.90;58.60;102572.72;5073971;28;20055;-72
2022/11/13 00:31:55;;;;;;;17.83;11.70;;;;;;;11.87;58.36;102572.84;5073899;28;20190;-72
2022/11/13 00:34:45;;;;;;;16.33;10.43;;;;;;;11.82;58.33;102565.00;5074177;28;20051;-72
2022/11/13 00:37:32;;;;;;;14.60;10.85;;;;;;;11.77;58.54;102572.38;5073455;28;20102;-73
2022/11/13 00:40:18;;;;;;;16.02;11.52;;;;;;;11.71;58.60;102567.28;5073963;28;20517;-72
2022/11/13 00:43:02;;;;;;;16.48;11.80;;;;;;;11.66;58.59;102561.25;5073893;28;20047;-72
2022/11/13 00:45:47;;;;;;;16.63;11.32;;;;;;;11.62;58.64;102563.22;5073908;28;20048;-74
2022/11/13 00:48:33;;;;;;;15.50;11.43;;;;;;;11.61;58.71;102566.00;5073728;28;20407;-72
2022/11/13 00:51:18;;;;;;;14.80;10.48;;;;;;;11.60;58.59;102556.19;5059338;28;20130;-72
2022/11/13 00:54:03;;;;;;;14.85;10.77;;;;;;;11.61;58.58;102555.22;5073656;28;20058;-72
2022/11/13 00:57:03;;;;;;;13.00;10.25;;;;;;;11.60;58.58;102557.06;4993601;28;20047;-72
2022/11/13 00:59:49;;;;;;;13.43;10.18;;;;;;;11.59;58.64;102551.75;4991728;28;20057;-71
2022/11/13 01:02:33;;;;;;;14.10;10.48;;;;;;;11.58;58.65;102552.69;5011437;28;20052;-72
2022/11/13 01:05:19;;;;;;;16.08;10.27;;;;;;;11.56;58.73;102552.75;5003949;28;20057;-72
2022/11/13 01:08:05;;;;;;;13.38;9.50;;;;;;;11.55;58.76;102550.16;5001394;28;20169;-72
2022/11/13 01:10:50;;;;;;;15.55;10.20;;;;;;;11.56;58.59;102543.81;5004027;28;20056;-72
2022/11/13 01:13:40;;;;;;;13.80;9.30;;;;;;;11.56;58.76;102544.69;5011405;28;20065;-71
2022/11/13 01:16:26;;;;;;;12.93;9.70;;;;;;;11.58;58.88;102542.81;4997263;28;20073;-72
2022/11/13 01:19:11;;;;;;;10.85;8.80;;;;;;;11.59;58.45;102541.84;5010187;28;20687;-72
2022/11/13 01:21:56;;;;;;;11.77;8.40;;;;;;;11.58;58.51;102544.63;4994783;28;20052;-71
2022/11/13 01:24:45;;;;;;;11.35;8.60;;;;;;;11.57;58.68;102543.75;4996612;28;20304;-71
2022/11/13 01:27:30;;;;;;;11.82;8.52;;;;;;;11.58;58.48;102540.09;5010584;28;20045;-71
2022/11/13 01:30:16;;;;;;;10.05;8.73;;;;;;;11.55;58.75;102529.50;4994583;28;20057;-72
2022/11/13 01:33:01;;;;;;;13.02;9.13;;;;;;;11.55;58.62;102532.19;5038311;28;20048;-73
2022/11/13 01:35:47;;;;;;;12.32;8.82;;;;;;;11.54;58.72;102521.50;5073139;28;20514;-72
2022/11/13 01:38:33;;;;;;;13.82;8.85;;;;;;;11.53;58.64;102527.81;5057261;28;20068;-72
2022/11/13 01:41:30;;;;;;;11.25;8.13;;;;;;;11.52;58.63;102523.38;5066344;28;20051;-72
2022/11/13 01:47:05;;;;;;;11.32;9.23;;;;;;;11.51;58.57;102522.50;5072576;28;20118;-71
2022/11/13 01:49:53;;;;;;;11.82;8.55;;;;;;;11.51;58.84;102533.28;5071654;28;20108;-71
2022/11/13 01:52:40;;;;;;;14.63;9.38;;;;;;;11.51;58.81;102521.63;5071404;28;20051;-71
2022/11/13 01:55:29;;;;;;;10.90;9.10;;;;;;;11.50;58.63;102522.59;5072404;28;20051;-70
2022/11/13 01:58:15;;;;;;;11.43;8.65;;;;;;;11.50;58.70;102519.91;5072411;28;20059;-71
2022/11/13 02:01:00;;;;;;;11.82;8.57;;;;;;;11.49;58.50;102513.66;5061838;28;20145;-71
2022/11/13 02:03:45;;;;;;;10.67;8.97;;;;;;;11.48;58.37;102511.03;5052062;28;20052;-73
2022/11/13 02:06:39;;;;;;;10.80;8.65;;;;;;;11.48;58.47;102503.84;5065405;28;20376;-72
2022/11/13 02:09:41;;;;;;;10.68;8.80;;;;;;;11.48;58.60;102508.34;5070980;28;20051;-72
2022/11/13 02:12:36;;;;;;;12.38;9.40;;;;;;;11.48;58.45;102498.44;5072262;28;20062;-71
2022/11/13 02:15:24;;;;;;;11.95;8.95;;;;;;;11.49;58.46;102504.69;5072007;28;20055;-72
2022/11/13 02:18:10;;;;;;;12.80;9.02;;;;;;;11.49;58.66;102499.31;5069543;28;20419;-72
2022/11/13 02:21:13;;;;;;;13.48;8.48;;;;;;;11.49;58.79;102497.50;5051991;28;20068;-71
2022/11/13 02:24:11;;;;;;;12.63;8.95;;;;;;;11.51;58.62;102492.03;5063927;28;20060;-72
2022/11/13 02:27:01;;;;;;;15.55;9.32;;;;;;;11.49;58.74;102492.13;5040260;28;20140;-72
2022/11/13 02:29:46;;;;;;;11.15;8.60;;;;;;;11.50;58.66;102487.63;5070236;28;20059;-72
2022/11/13 02:32:31;;;;;;;12.48;8.23;;;;;;;11.50;58.55;102488.47;5063551;28;20056;-72
2022/11/13 02:35:25;;;;;;;12.40;8.70;;;;;;;11.50;58.38;102488.47;5051647;28;20047;-72
2022/11/13 02:38:10;;;;;;;9.93;7.60;;;;;;;11.53;58.49;102487.47;5051730;28;20105;-73
2022/11/13 02:40:55;;;;;;;10.63;7.95;;;;;;;11.55;58.97;102490.94;5051453;28;20052;-73
2022/11/13 02:43:40;;;;;;;11.90;8.97;;;;;;;11.58;58.15;102480.91;5066500;28;20052;-71
2022/11/13 02:46:27;;;;;;;11.63;8.73;;;;;;;11.57;58.22;102483.69;5061602;28;20306;-71
2022/11/13 02:49:12;;;;;;;11.68;8.73;;;;;;;11.56;58.46;102487.31;5051337;28;20048;-71
2022/11/13 02:51:57;;;;;;;10.07;7.97;;;;;;;11.58;58.56;102480.03;5060546;28;20590;-71
2022/11/13 02:54:43;;;;;;;10.40;7.38;;;;;;;11.62;58.34;102473.56;5071768;28;20063;-71
2022/11/13 02:57:28;;;;;;;10.68;8.15;;;;;;;11.65;58.35;102476.09;5070975;28;20410;-72
2022/11/13 03:00:14;;;;;;;10.48;7.93;;;;;;;11.67;58.27;102474.19;5070181;28;20179;-72
2022/11/13 03:02:59;;;;;;;9.73;7.78;;;;;;;11.70;58.28;102474.91;5071235;28;20538;-72
2022/11/13 03:05:48;;;;;;;12.60;8.13;;;;;;;11.73;58.37;102479.28;5067089;28;20123;-72
2022/11/13 03:08:33;;;;;;;11.25;8.13;;;;;;;11.75;58.23;102480.06;5056460;28;20094;-72
2022/11/13 03:11:20;;;;;;;11.15;8.55;;;;;;;11.75;58.16;102474.69;5058763;28;20545;-72
2022/11/13 03:14:05;;;;;;;11.82;8.00;;;;;;;11.75;57.82;102464.78;5051938;28;20162;-72
2022/11/13 03:17:04;;;;;;;10.07;7.60;;;;;;;11.77;57.87;102475.47;4963524;28;20055;-71
2022/11/13 03:19:49;;;;;;;10.75;7.78;;;;;;;11.79;57.81;102465.53;4969179;28;20576;-71
2022/11/13 03:22:34;;;;;;;13.57;8.53;;;;;;;11.78;57.79;102470.06;4969955;28;20089;-72
2022/11/13 03:25:24;;;;;;;13.30;8.50;;;;;;;11.79;57.90;102462.84;4969821;28;20062;-71
2022/11/13 03:28:08;;;;;;;10.88;8.20;;;;;;;11.80;57.78;102453.81;4969690;28;20297;-71
2022/11/13 03:30:53;;;;;;;11.33;8.37;;;;;;;11.79;57.67;102462.84;4968982;28;20621;-72
2022/11/13 03:33:38;;;;;;;10.65;7.95;;;;;;;11.78;57.61;102463.78;4956326;28;20062;-71
2022/11/13 03:36:24;;;;;;;12.30;8.82;;;;;;;11.76;57.48;102460.28;4969852;28;20078;-72
2022/11/13 03:39:09;;;;;;;12.05;8.30;;;;;;;11.74;57.57;102457.66;4969225;28;20201;-73
2022/11/13 03:41:55;;;;;;;12.45;8.57;;;;;;;11.74;57.52;102460.34;4969605;28;20138;-72
2022/11/13 03:44:39;;;;;;;11.33;8.23;;;;;;;11.74;57.61;102462.19;4969732;28;20573;-72
2022/11/13 03:47:24;;;;;;;11.00;8.37;;;;;;;11.75;57.55;102455.84;4969600;28;20360;-72
2022/11/13 03:50:09;;;;;;;11.73;9.18;;;;;;;11.76;57.57;102454.91;4969358;28;20728;-72
2022/11/13 03:52:55;;;;;;;12.93;8.93;;;;;;;11.75;57.39;102448.63;5013468;28;20442;-72
2022/11/13 03:55:44;;;;;;;11.50;8.32;;;;;;;11.75;57.51;102447.78;5066861;28;20526;-72
2022/11/13 03:58:28;;;;;;;11.43;9.10;;;;;;;11.74;57.55;102438.81;5071708;28;20474;-71
2022/11/13 04:01:14;;;;;;;14.70;10.20;;;;;;;11.75;57.38;102435.19;5051951;28;20055;-71
2022/11/13 04:04:00;;;;;;;13.98;9.35;;;;;;;11.76;57.37;102439.63;5050493;28;20052;-71
2022/11/13 04:06:46;;;;;;;15.47;9.47;;;;;;;11.78;57.29;102440.44;5062972;28;20048;-72
2022/11/13 04:09:31;;;;;;;12.07;8.98;;;;;;;11.78;57.22;102431.50;5066498;28;20526;-72
2022/11/13 04:12:16;;;;;;;11.98;8.23;;;;;;;11.79;57.32;102430.56;5072808;28;20567;-72
2022/11/13 04:15:03;;;;;;;14.50;9.55;;;;;;;11.79;57.24;102425.16;5073957;28;20366;-72
2022/11/13 04:17:48;;;;;;;12.85;9.77;;;;;;;11.78;57.05;102421.59;5070927;28;20044;-72
2022/11/13 04:20:34;;;;;;;13.13;9.48;;;;;;;11.78;57.07;102416.22;5069247;28;20059;-72
2022/11/13 04:23:19;;;;;;;12.40;9.47;;;;;;;11.77;56.79;102409.09;5071290;28;20059;-72
2022/11/13 04:26:05;;;;;;;10.55;9.05;;;;;;;11.76;56.97;102406.44;5063812;28;20310;-72
2022/11/13 04:28:50;;;;;;;;;;;;;;;11.74;57.17;102409.22;5054064;28;20067;-72
2022/11/13 04:31:35;;;;;;;14.15;9.48;;;;;;;11.75;56.92;102405.56;5053911;28;19928;-71
2022/11/13 04:34:23;;;;;;;14.52;8.93;;;;;;;11.71;57.02;102405.81;5038800;28;20175;-72
2022/11/13 04:37:09;;;;;;;13.43;9.93;;;;;;;11.65;56.72;102403.44;5055161;28;20052;-72
2022/11/13 04:39:54;;;;;;;12.77;9.00;;;;;;;11.59;56.94;102392.97;5054767;28;20044;-72
2022/11/13 04:42:49;;;;;;;12.02;8.70;;;;;;;11.55;56.84;102400.34;5053843;28;20048;-73
2022/11/13 04:45:35;;;;;;;11.85;9.27;;;;;;;11.51;56.76;102404.13;5054903;28;20048;-72
2022/11/13 04:48:21;;;;;;;14.80;10.25;;;;;;;11.48;56.81;102406.97;5066188;28;20106;-73
2022/11/13 04:51:05;;;;;;;15.00;9.47;;;;;;;11.45;56.44;102404.44;5064105;28;20054;-73
2022/11/13 04:53:51;;;;;;;12.23;9.45;;;;;;;11.41;57.11;102392.97;5073757;28;20051;-72
2022/11/13 04:56:36;;;;;;;15.85;9.93;;;;;;;11.39;56.95;102394.84;5058142;28;20403;-72
2022/11/13 04:59:21;;;;;;;12.80;9.68;;;;;;;11.36;56.83;102394.13;5054084;28;20510;-72
2022/11/13 05:02:06;;;;;;;15.43;9.27;;;;;;;11.34;56.76;102379.91;5072746;28;20055;-72
2022/11/13 05:04:54;;;;;;;13.68;10.20;;;;;;;11.31;56.81;102382.75;5057507;28;20051;-72
2022/11/13 05:07:41;;;;;;;14.43;9.43;;;;;;;11.27;56.86;102382.03;5053331;28;20521;-71
2022/11/13 05:10:26;;;;;;;12.70;9.30;;;;;;;11.25;56.95;102374.97;5058672;28;20125;-72
2022/11/13 05:13:11;;;;;;;14.00;9.75;;;;;;;11.20;56.93;102375.19;5073381;28;20051;-71
2022/11/13 05:16:07;;;;;;;15.20;9.47;;;;;;;11.14;56.84;102381.72;5063930;28;20048;-72
2022/11/13 05:18:52;;;;;;;11.25;8.90;;;;;;;11.10;56.87;102369.38;5063213;28;20141;-72
2022/11/13 05:21:38;;;;;;;12.70;9.48;;;;;;;11.09;56.95;102372.13;5052550;28;20052;-71
2022/11/13 05:24:27;;;;;;;13.00;9.65;;;;;;;11.06;56.98;102358.84;5052232;28;20056;-72
2022/11/13 05:27:13;;;;;;;13.93;9.95;;;;;;;11.04;56.79;102348.16;5052881;28;20059;-71
2022/11/13 05:30:02;;;;;;;12.35;9.55;;;;;;;11.03;56.78;102348.25;5041384;28;20534;-72
2022/11/13 05:32:47;;;;;;;14.10;9.68;;;;;;;11.02;56.76;102331.25;5072100;28;20512;-72
2022/11/13 05:35:32;;;;;;;15.70;9.02;;;;;;;11.00;56.82;102332.25;5072489;28;20746;-72
2022/11/13 05:38:17;;;;;;;10.93;8.60;;;;;;;10.97;57.02;102332.41;5073061;28;20059;-73
2022/11/13 05:41:07;;;;;;;11.17;8.30;;;;;;;10.95;57.02;102327.13;5072989;28;20055;-73
2022/11/13 05:43:53;;;;;;;12.10;8.23;;;;;;;10.95;57.02;102323.56;5072575;28;20513;-72
2022/11/13 05:46:45;;;;;;;11.55;8.55;;;;;;;10.94;56.92;102328.06;5057877;28;20047;-72
2022/11/13 05:49:30;;;;;;;11.75;8.55;;;;;;;10.92;57.00;102329.94;5052367;28;20055;-72
2022/11/13 05:52:15;;;;;;;10.32;8.25;;;;;;;10.91;56.88;102320.16;5064489;28;20126;-72
2022/11/13 05:55:01;;;;;;;11.43;8.15;;;;;;;10.91;56.90;102325.53;5072219;28;20157;-72
2022/11/13 05:57:46;;;;;;;11.05;8.52;;;;;;;10.89;56.92;102322.03;5071750;28;20052;-71
2022/11/13 06:00:31;;;;;;;10.57;7.57;;;;;;;10.88;56.83;102314.06;5056271;28;20056;-73
2022/11/13 06:03:16;;;;;;;10.57;7.57;;;;;;;10.84;56.90;102318.72;5052163;28;20068;-73
2022/11/13 06:06:03;;;;;;;10.05;7.53;;;;;;;10.80;57.02;102320.66;5068621;28;20056;-72
2022/11/13 06:08:49;;;;;;;10.88;7.53;;;;;;;10.79;56.78;102315.38;5071396;28;20133;-72
2022/11/13 06:11:34;;;;;;;10.05;7.32;;;;;;;10.77;56.87;102306.50;5056336;28;20055;-72
2022/11/13 06:14:23;;;;;;;8.45;7.05;;;;;;;10.75;56.83;102306.59;5037362;28;20059;-73
2022/11/13 06:17:08;;;;;;;9.73;7.47;;;;;;;10.73;56.63;102308.47;5063956;28;20055;-72
2022/11/13 06:19:53;;;;;;;8.60;6.90;;;;;;;10.70;57.03;102297.88;5064721;28;20064;-73
2022/11/13 06:22:38;;;;;;;9.85;7.68;;;;;;;10.67;56.78;102292.66;5055151;28;20052;-72
2022/11/13 06:25:23;;;;;;;9.50;7.23;;;;;;;10.64;56.65;102298.19;5055858;28;20048;-73
2022/11/13 06:28:08;;;;;;;8.60;6.82;;;;;;;10.61;56.87;102298.31;5068604;28;20114;-73
2022/11/13 06:30:53;;;;;;;9.48;7.20;;;;;;;10.57;56.62;102295.84;5062798;28;20072;-73
2022/11/13 06:33:40;;;;;;;12.40;6.75;;;;;;;10.55;56.88;102292.38;5052373;28;20091;-73
2022/11/13 06:36:27;;;;;;;8.02;5.65;;;;;;;10.54;56.55;102296.00;5052285;28;20530;-73
2022/11/13 06:39:12;;;;;;;8.80;6.03;;;;;;;10.54;56.66;102287.94;5051599;28;20055;-73
2022/11/13 06:41:58;;;;;;;7.35;6.10;;;;;;;10.53;56.69;102292.44;5051946;28;20226;-73
2022/11/13 06:44:45;;;;;;;7.47;5.38;;;;;;;10.54;56.74;102291.50;5051590;28;20082;-73
2022/11/13 06:47:29;;;;;;;7.07;5.40;;;;;;;10.55;56.64;102290.56;5051198;28;20067;-73
2022/11/13 06:50:14;;;;;;;6.67;4.77;;;;;;;10.57;56.98;102285.97;5052291;28;20046;-72
2022/11/13 06:52:59;;;;;;;7.28;5.00;;;;;;;10.60;56.54;102287.66;5051105;28;20106;-72
2022/11/13 06:55:48;;;;;;;6.28;4.38;;;;;;;10.61;56.59;102292.09;5066071;28;20453;-72
2022/11/13 06:58:34;;;;;;;4.63;3.60;;;;;;;10.62;56.64;102286.63;5050818;28;20134;-72
2022/11/13 07:01:21;;;;;;;4.70;4.00;;;;;;;10.63;56.41;102283.00;5062278;28;20059;-71
2022/11/13 07:04:10;;;;;;;6.70;4.00;;;;;;;10.64;56.34;102290.13;5070930;28;20125;-72
2022/11/13 07:07:04;;;;;;;4.40;3.70;;;;;;;10.66;56.25;102290.91;5014260;28;20050;-72
2022/11/13 07:09:49;;;;;;;5.68;4.05;;;;;;;10.68;56.00;102290.84;5026996;28;20057;-71
2022/11/13 07:12:34;;;;;;;5.10;3.90;;;;;;;10.69;56.01;102288.06;5028608;28;20329;-71
2022/11/13 07:15:19;;;;;;;4.03;3.60;;;;;;;10.70;55.99;102291.63;5028534;28;20164;-72
2022/11/13 07:18:05;;;;;;;6.50;3.80;;;;;;;10.74;56.05;102291.41;5026896;28;20056;-71
2022/11/13 07:20:50;;;;;;;4.45;3.53;;;;;;;10.76;55.92;102292.22;5011821;28;20113;-71
2022/11/13 07:23:41;;;;;;;5.15;4.45;;;;;;;10.77;55.88;102288.56;5028025;28;20049;-70
2022/11/13 07:26:27;;;;;;;5.55;4.65;;;;;;;10.77;55.78;102293.94;5011797;28;20139;-71
2022/11/13 07:29:11;;;;;;;8.27;4.95;;;;;;;10.75;55.74;102292.28;5028291;28;20052;-70
2022/11/13 07:31:56;;;;;;;6.60;5.37;;;;;;;10.74;55.80;102283.34;5026184;28;20194;-73
2022/11/13 07:34:43;;;;;;;7.22;4.50;;;;;;;10.77;55.58;102283.19;5009151;28;20053;-71
2022/11/13 07:37:28;;;;;;;5.85;4.55;;;;;;;10.81;55.98;102279.41;5008809;28;20196;-74
2022/11/13 07:40:13;;;;;;;6.40;5.00;;;;;;;10.91;55.81;102273.59;5013603;28;20068;-73
2022/11/13 07:42:59;;;;;;;5.28;4.18;;;;;;;11.04;56.00;102269.34;5031392;28;20131;-73
2022/11/13 07:46:11;;;;;;;5.00;4.28;;;;;;;11.21;56.15;102269.38;5071035;28;20135;-73
2022/11/13 07:48:56;;;;;;;5.25;4.50;;;;;;;11.45;56.19;102269.94;5074916;28;20040;-73
2022/11/13 07:51:42;;;;;;;5.53;4.32;;;;;;;11.68;56.05;102266.91;5074139;28;20059;-72
2022/11/13 07:54:30;;;;;;;4.83;4.10;;;;;;;11.88;55.70;102270.38;5073232;28;20517;-71
2022/11/13 07:57:15;;;;;;;5.88;4.07;;;;;;;12.03;55.42;102269.56;5074503;28;20051;-71
2022/11/13 08:00:00;;;;;;;5.13;4.20;;;;;;;12.16;55.55;102277.84;5053814;28;20052;-71
2022/11/13 08:02:46;;;;;;;4.78;3.78;;;;;;;12.25;55.03;102275.53;5054608;28;20052;-71
2022/11/13 08:05:36;;;;;;;;;;;;;;;12.30;55.09;102272.56;5055491;28;20072;-71
2022/11/13 08:08:21;;;;;;;4.90;3.97;;;;;;;12.38;54.75;102275.72;5052571;28;19927;-71
2022/11/13 08:11:08;;;;;;;5.78;4.10;;;;;;;12.39;54.73;102275.63;5054212;28;20102;-71
2022/11/13 08:13:53;;;;;;;5.25;3.80;;;;;;;12.40;54.62;102279.19;5054131;28;20091;-71
2022/11/13 08:16:39;;;;;;;4.50;4.05;;;;;;;12.40;54.36;102273.81;5054610;28;20048;-71
2022/11/13 08:19:24;;;;;;;;;;;;;;;12.40;54.50;102274.66;5054919;28;20064;-71
2022/11/13 08:22:09;;;;;;;5.65;4.32;;;;;;;12.45;54.32;102268.16;5052668;28;19928;-71
2022/11/13 08:24:56;;;;;;;4.50;3.87;;;;;;;12.45;54.32;102263.63;5054199;28;20048;-71
2022/11/13 08:27:41;;;;;;;4.50;3.53;;;;;;;12.48;54.44;102262.59;5054242;28;20868;-71
2022/11/13 08:30:27;;;;;;;5.75;3.90;;;;;;;12.51;54.00;102257.91;5052577;28;20063;-71
2022/11/13 08:33:12;;;;;;;;;;;;;;;12.55;54.25;102259.47;5054586;28;20059;-71
2022/11/13 08:36:22;;;;;;;6.15;3.78;;;;;;;12.66;54.25;102256.19;5054350;28;19928;-70
2022/11/13 08:39:08;;;;;;;5.03;4.15;;;;;;;12.77;54.28;102256.44;5053952;28;20052;-70
2022/11/13 08:42:03;;;;;;;5.13;3.58;;;;;;;12.89;54.05;102255.72;5053683;28;20052;-67
2022/11/13 08:44:48;;;;;;;5.47;4.65;;;;;;;13.02;53.93;102253.16;5052695;28;20095;-68
2022/11/13 08:47:34;;;;;;;7.50;5.63;;;;;;;13.13;53.97;102247.13;5053811;28;20132;-67
2022/11/13 08:50:19;;;;;;;7.03;5.78;;;;;;;13.22;54.15;102247.50;5053741;28;20541;-66
2022/11/13 08:53:05;;;;;;;7.43;5.38;;;;;;;13.34;54.26;102251.28;5053018;28;20147;-67
2022/11/13 08:55:51;;;;;;;7.05;5.85;;;;;;;13.46;54.15;102241.59;5053805;28;20055;-67
2022/11/13 08:58:36;;;;;;;6.78;5.63;;;;;;;13.58;54.13;102239.03;5054860;28;20086;-67
2022/11/13 09:01:21;;;;;;;7.03;6.33;;;;;;;13.74;53.93;102238.06;5073654;28;20090;-67
2022/11/13 09:04:06;;;;;;;6.68;6.00;;;;;;;13.86;53.96;102231.91;5073628;28;20110;-67
2022/11/13 09:07:02;;;;;;;6.90;5.60;;;;;;;14.01;53.70;102236.34;5050596;28;20037;-67
2022/11/13 09:09:47;;;;;;;8.45;5.38;;;;;;;14.14;54.03;102236.44;5050811;28;20533;-67
2022/11/13 09:12:32;;;;;;;7.20;5.67;;;;;;;14.24;53.90;102224.94;5050361;28;20059;-67
2022/11/13 09:15:20;;;;;;;8.27;5.75;;;;;;;14.36;53.40;102228.69;5050927;28;20290;-66
2022/11/13 09:18:09;;;;;;;7.10;5.15;;;;;;;14.46;52.92;102229.84;5050411;28;20052;-67
2022/11/13 09:20:54;;;;;;;7.43;5.65;;;;;;;14.55;52.90;102223.84;5050702;28;20052;-67
2022/11/13 09:23:39;;;;;;;;;;;;;;;14.67;53.08;102221.31;5051014;28;20052;-67
2022/11/13 09:26:24;;;;;;;6.35;5.72;;;;;;;14.82;52.88;102222.97;5050847;28;19942;-67
2022/11/13 09:29:09;;;;;;;9.90;5.77;;;;;;;14.90;52.79;102217.94;5050276;28;20052;-67
2022/11/13 09:31:55;;;;;;;7.95;5.60;;;;;;;15.01;52.28;102218.09;5049783;28;20310;-67
2022/11/13 09:34:40;;;;;;;5.93;4.90;;;;;;;15.12;52.65;102220.06;5050359;28;20056;-67
2022/11/13 09:37:25;;;;;;;6.88;4.93;;;;;;;15.26;52.55;102218.16;5050489;28;20072;-68
2022/11/13 09:40:23;;;;;;;6.30;4.60;;;;;;;15.48;52.26;102216.66;5050729;28;20419;-68
2022/11/13 09:43:20;;;;;;;5.75;4.88;;;;;;;15.69;51.90;102214.34;5058204;28;20105;-68
2022/11/13 09:46:26;;;;;;;;;;;;;;;15.89;51.95;102211.06;5073363;28;20109;-68
2022/11/13 09:49:31;;;;;;;5.30;3.87;;;;;;;16.21;51.81;102220.44;5066481;28;19928;-68
2022/11/13 09:52:24;;;;;;;6.22;3.92;;;;;;;16.41;51.63;102219.00;5071947;28;20529;-68
2022/11/13 09:55:15;;;;;;;6.50;4.10;;;;;;;16.60;51.03;102217.63;5059783;28;20077;-68
2022/11/13 09:58:11;;;;;;;5.70;4.50;;;;;;;16.76;51.09;102210.97;5051961;28;20568;-68
2022/11/13 10:00:59;;;;;;;6.60;3.70;;;;;;;16.97;50.65;102211.19;5032576;28;20056;-67
2022/11/13 10:03:51;;;;;;;5.00;4.03;;;;;;;17.17;50.17;102198.84;5031953;28;20053;-68
2022/11/13 10:07:04;;;;;;;4.15;3.70;;;;;;;17.40;49.69;102197.03;5032458;28;20049;-68
2022/11/13 10:10:17;;;;;;;4.25;3.83;;;;;;;17.59;49.33;102201.88;5031712;28;20059;-68
2022/11/13 10:13:04;;;;;;;5.13;3.67;;;;;;;17.77;49.14;102197.72;5032091;28;20056;-68
2022/11/13 10:16:03;;;;;;;4.13;3.55;;;;;;;17.93;48.83;102192.81;5033370;28;20529;-68
2022/11/13 10:18:49;;;;;;;4.22;3.30;;;;;;;18.08;48.62;102194.28;5031913;28;20142;-68
2022/11/13 10:21:44;;;;;;;5.50;3.55;;;;;;;18.24;48.24;102190.31;5031719;28;20558;-68
2022/11/13 10:24:39;;;;;;;4.43;3.67;;;;;;;18.39;48.09;102191.78;5033185;28;20526;-68
2022/11/13 10:27:24;;;;;;;3.88;3.30;;;;;;;18.50;48.15;102186.31;5031729;28;20044;-68
2022/11/13 10:30:15;;;;;;;4.67;3.50;;;;;;;18.65;47.53;102186.94;5032012;28;20060;-68
2022/11/13 10:33:05;;;;;;;3.83;3.15;;;;;;;18.78;47.65;102179.47;5031682;28;20836;-68
2022/11/13 10:36:19;;;;;;;7.60;3.65;;;;;;;18.90;46.95;102177.56;5050065;28;20103;-69
2022/11/13 10:39:06;;;;;;;3.92;2.95;;;;;;;19.03;46.94;102178.25;5051737;28;20056;-68
2022/11/13 10:41:53;;;;;;;3.88;3.13;;;;;;;19.16;46.90;102175.34;5051369;28;20066;-71
2022/11/13 10:44:52;;;;;;;5.32;2.95;;;;;;;19.31;46.36;102174.00;5049811;28;20151;-71
2022/11/13 10:47:45;;;;;;;4.57;3.00;;;;;;;19.43;46.31;102164.78;5051228;28;20513;-71
2022/11/13 10:50:58;;;;;;;4.55;3.22;;;;;;;19.59;45.75;102169.78;5051572;28;20048;-71
2022/11/13 10:53:43;;;;;;;;;;;;;;;19.71;45.87;102171.41;5047300;28;20052;-71
2022/11/13 10:56:35;;;;;;;3.33;2.60;;;;;;;19.87;45.61;102171.78;5032688;28;19943;-71
2022/11/13 10:59:20;;;;;;;4.43;2.83;;;;;;;19.96;45.66;102162.78;5038785;28;20522;-72
2022/11/13 11:02:16;;;;;;;4.03;2.95;;;;;;;20.05;45.05;102165.66;5050363;28;20521;-71
2022/11/13 11:05:23;;;;;;;3.75;2.67;;;;;;;20.12;44.68;102165.00;5052101;28;20131;-71
2022/11/13 11:08:09;;;;;;;3.50;2.50;;;;;;;20.22;44.47;102156.84;5050966;28;20126;-71
2022/11/13 11:14:21;;;;;;;4.40;2.40;;;;;;;20.36;43.53;102152.84;5052384;28;20056;-72
2022/11/13 11:17:09;;;;;;;3.40;2.65;;;;;;;20.45;43.51;102138.41;5051032;28;20411;-71
2022/11/13 11:20:43;;;;;;;2.80;2.50;;;;;;;20.54;43.24;102135.69;5051654;28;20064;-69
2022/11/13 11:23:50;;;;;;;2.75;2.30;;;;;;;20.66;43.13;102136.41;5005200;28;20128;-70
2022/11/13 11:26:46;;;;;;;3.47;2.53;;;;;;;20.73;43.02;102129.34;5067691;28;20060;-70
2022/11/13 11:29:43;;;;;;;4.05;3.53;;;;;;;20.77;42.53;102130.78;5075418;28;20842;-70
2022/11/13 11:32:41;;;;;;;3.00;2.70;;;;;;;20.85;42.43;102120.03;5074774;28;20197;-70
2022/11/13 11:35:48;;;;;;;4.35;2.67;;;;;;;20.88;41.77;102107.97;5073904;28;20051;-70
2022/11/13 11:38:41;;;;;;;3.95;2.83;;;;;;;20.92;41.78;102110.25;5059892;28;20055;-71
2022/11/13 11:41:33;;;;;;;4.43;3.40;;;;;;;20.98;41.66;102105.22;5075085;28;20101;-69
2022/11/13 11:44:35;;;;;;;4.78;3.05;;;;;;;21.02;41.34;102107.50;5063124;28;20091;-70
2022/11/13 11:47:20;;;;;;;3.33;3.03;;;;;;;21.10;41.46;102104.91;5055438;28;20556;-70
2022/11/13 11:50:12;;;;;;;4.65;3.80;;;;;;;21.10;41.39;102104.06;5055068;28;20138;-68
2022/11/13 11:53:30;;;;;;;5.70;3.08;;;;;;;21.01;41.12;102097.59;5056624;28;20047;-69
2022/11/13 11:56:32;;;;;;;3.10;2.72;;;;;;;20.99;41.21;102085.09;5074801;28;20047;-69
2022/11/13 11:59:52;;;;;;;4.25;3.40;;;;;;;20.96;41.17;102085.38;5074461;28;20145;-69
2022/11/13 12:02:46;;;;;;;4.05;3.20;;;;;;;20.92;41.13;102079.34;5072753;28;20559;-68
2022/11/13 12:05:54;;;;;;;3.97;3.45;;;;;;;20.87;41.13;102074.34;5054498;28;20060;-68
2022/11/13 12:08:51;;;;;;;3.88;3.40;;;;;;;20.85;41.46;102073.63;5054681;28;20060;-69
2022/11/13 12:11:47;;;;;;;4.68;3.35;;;;;;;20.87;41.32;102068.00;5054235;28;20055;-69
2022/11/13 12:14:51;;;;;;;;;;;;;;;20.88;41.61;102067.88;5055917;28;20048;-68
2022/11/13 12:17:54;;;;;;;3.25;2.67;;;;;;;20.96;41.48;102058.94;5039334;28;20444;-69
2022/11/13 12:20:49;;;;;;;3.95;3.13;;;;;;;20.99;41.22;102057.78;5054483;28;20051;-69
2022/11/13 12:24:00;;;;;;;3.83;3.20;;;;;;;21.02;40.90;102054.75;5055143;28;20056;-69
2022/11/13 12:27:37;;;;;;;4.32;3.47;;;;;;;21.09;41.15;102047.69;5000457;28;20050;-69
2022/11/13 12:31:04;;;;;;;4.15;3.08;;;;;;;21.11;41.09;102035.59;5011610;28;20088;-69
2022/11/13 12:34:03;;;;;;;4.30;3.10;;;;;;;21.21;41.08;102030.13;5010480;28;20064;-69
2022/11/13 12:36:49;;;;;;;3.28;2.97;;;;;;;21.24;41.02;102030.69;5011307;28;20455;-69
2022/11/13 12:39:34;;;;;;;4.28;3.15;;;;;;;21.24;40.73;102030.69;5011057;28;20088;-69
2022/11/13 12:42:35;;;;;;;3.10;2.80;;;;;;;21.28;40.76;102025.81;5011150;28;20085;-69
2022/11/13 12:45:38;;;;;;;3.13;2.70;;;;;;;21.32;40.50;102023.63;5011119;28;20403;-68
2022/11/13 12:48:36;;;;;;;5.40;3.10;;;;;;;21.33;40.33;102023.47;5011389;28;20072;-69
2022/11/13 12:51:21;;;;;;;3.08;2.42;;;;;;;21.36;40.26;102020.44;5011018;28;20180;-69
2022/11/13 12:54:09;;;;;;;4.05;2.80;;;;;;;21.40;40.06;102008.19;5010518;28;20057;-69
2022/11/13 12:57:15;;;;;;;3.92;2.90;;;;;;;21.51;39.69;102018.94;5011112;28;20053;-68
2022/11/13 13:00:25;;;;;;;3.63;2.90;;;;;;;21.58;39.51;102010.16;5012639;28;20407;-68
2022/11/13 13:03:10;;;;;;;4.05;3.13;;;;;;;21.57;39.55;102003.81;5071955;28;20768;-69
2022/11/13 13:06:24;;;;;;;4.27;3.13;;;;;;;21.47;39.37;101992.06;5073304;28;20052;-68
2022/11/13 13:09:37;;;;;;;3.65;3.08;;;;;;;21.37;39.28;101992.09;5073154;28;20317;-69
2022/11/13 13:12:46;;;;;;;3.83;2.60;;;;;;;21.19;38.99;101985.69;5056235;28;20059;-69